createdAt,value
2023-01-12T00:00:53.458Z,6.71
2023-01-12T00:01:53.563Z,6.65
2023-01-12T00:02:53.553Z,6.72
2023-01-12T00:03:53.515Z,6.68
2023-01-12T00:04:53.528Z,6.71
2023-01-12T00:05:53.505Z,6.69
2023-01-12T00:06:53.441Z,6.72
2023-01-12T00:07:53.486Z,6.72
2023-01-12T00:08:53.444Z,6.76
2023-01-12T00:09:53.438Z,6.73
2023-01-12T00:10:53.397Z,6.72
2023-01-12T00:11:53.239Z,6.75
2023-01-12T00:12:53.378Z,6.72
2023-01-12T00:13:53.383Z,6.78
2023-01-12T00:14:53.450Z,6.83
2023-01-12T00:15:53.442Z,6.69
2023-01-12T00:16:53.172Z,6.69
2023-01-12T00:17:53.463Z,6.78
2023-01-12T00:18:53.163Z,6.73
2023-01-12T00:19:53.248Z,6.79
2023-01-12T00:20:53.201Z,6.78
2023-01-12T00:21:53.111Z,6.79
2023-01-12T00:22:53.101Z,6.72
2023-01-12T00:23:53.168Z,6.79
2023-01-12T00:24:53.072Z,6.73
2023-01-12T00:25:53.106Z,6.60
2023-01-12T00:26:52.992Z,6.71
2023-01-12T00:27:52.980Z,6.71
2023-01-12T00:28:52.947Z,6.72
2023-01-12T00:29:52.968Z,6.72
2023-01-12T00:30:52.926Z,6.78
2023-01-12T00:31:52.914Z,6.76
2023-01-12T00:32:52.974Z,6.79
2023-01-12T00:33:52.882Z,6.76
2023-01-12T00:34:53.076Z,6.73
2023-01-12T00:35:52.846Z,6.75
2023-01-12T00:36:52.942Z,6.79
2023-01-12T00:37:52.802Z,6.69
2023-01-12T00:38:53.011Z,6.81
2023-01-12T00:40:01.957Z,6.79
2023-01-12T00:40:54.823Z,6.87
2023-01-12T00:41:52.741Z,6.81
2023-01-12T00:42:52.704Z,6.89
2023-01-12T00:43:52.810Z,6.81
2023-01-12T00:44:52.792Z,6.96
2023-01-12T00:45:52.992Z,6.90
2023-01-12T00:46:52.706Z,6.99
2023-01-12T00:47:52.627Z,6.91
2023-01-12T00:48:52.624Z,7.07
2023-01-12T00:49:52.641Z,6.97
2023-01-12T00:50:52.613Z,7.04
2023-01-12T00:51:52.563Z,6.96
2023-01-12T00:52:52.580Z,7.00
2023-01-12T00:53:52.680Z,6.89
2023-01-12T00:54:52.510Z,6.99
2023-01-12T00:55:53.072Z,7.00
2023-01-12T00:56:52.489Z,7.00
2023-01-12T00:57:52.466Z,7.04
2023-01-12T00:58:52.442Z,7.04
2023-01-12T00:59:52.610Z,6.99
2023-01-12T01:00:52.651Z,7.01
2023-01-12T01:01:52.424Z,6.99
2023-01-12T01:02:52.453Z,6.99
2023-01-12T01:03:52.456Z,7.01
2023-01-12T01:04:52.380Z,7.04
2023-01-12T01:05:52.689Z,7.05
2023-01-12T01:06:52.301Z,7.04
2023-01-12T01:07:52.299Z,7.08
2023-01-12T01:08:52.395Z,7.09
2023-01-12T01:09:52.318Z,7.04
2023-01-12T01:10:52.286Z,7.14
2023-01-12T01:11:52.360Z,7.12
2023-01-12T01:12:52.255Z,7.08
2023-01-12T01:13:52.412Z,7.01
2023-01-12T01:14:52.175Z,7.09
2023-01-12T01:15:52.258Z,7.09
2023-01-12T01:16:52.256Z,7.07
2023-01-12T01:17:52.119Z,6.96
2023-01-12T01:18:52.108Z,7.08
2023-01-12T01:19:52.162Z,6.99
2023-01-12T01:20:52.112Z,7.01
2023-01-12T01:21:52.160Z,7.01
2023-01-12T01:22:52.037Z,6.97
2023-01-12T01:23:52.101Z,7.08
2023-01-12T01:24:51.999Z,7.05
2023-01-12T01:25:52.024Z,7.08
2023-01-12T01:26:52.102Z,7.11
2023-01-12T01:27:52.087Z,6.96
2023-01-12T01:28:52.117Z,7.14
2023-01-12T01:29:52.089Z,7.05
2023-01-12T01:30:51.961Z,7.14
2023-01-12T01:31:51.883Z,7.12
2023-01-12T01:32:51.859Z,7.08
2023-01-12T01:33:51.842Z,7.14
2023-01-12T01:34:52.018Z,7.11
2023-01-12T01:35:51.846Z,7.09
2023-01-12T01:36:51.800Z,7.11
2023-01-12T01:37:51.951Z,7.01
2023-01-12T01:38:51.780Z,6.99
2023-01-12T01:39:51.753Z,7.08
2023-01-12T01:40:51.771Z,7.11
2023-01-12T01:41:51.709Z,7.09
2023-01-12T01:42:51.708Z,7.15
2023-01-12T01:43:51.727Z,7.04
2023-01-12T01:44:51.663Z,7.07
2023-01-12T01:45:51.758Z,7.12
2023-01-12T01:46:51.637Z,7.16
2023-01-12T01:47:51.776Z,7.09
2023-01-12T01:48:51.668Z,7.12
2023-01-12T01:49:51.742Z,7.19
2023-01-12T01:50:51.648Z,7.09
2023-01-12T01:51:51.614Z,7.09
2023-01-12T01:52:52.547Z,7.05
2023-01-12T01:53:51.541Z,7.01
2023-01-12T01:54:51.495Z,7.04
2023-01-12T01:55:51.564Z,7.12
2023-01-12T01:56:51.467Z,6.93
2023-01-12T01:57:51.474Z,7.08
2023-01-12T01:58:51.424Z,7.01
2023-01-12T01:59:51.417Z,6.97
2023-01-12T02:00:51.465Z,7.07
2023-01-12T02:01:51.497Z,6.99
2023-01-12T02:02:51.427Z,7.12
2023-01-12T02:03:51.370Z,7.15
2023-01-12T02:04:51.433Z,7.09
2023-01-12T02:05:51.359Z,7.00
2023-01-12T02:06:51.306Z,7.05
2023-01-12T02:07:51.292Z,7.12
2023-01-12T02:08:51.267Z,7.00
2023-01-12T02:09:51.232Z,7.07
2023-01-12T02:10:51.292Z,7.01
2023-01-12T02:11:51.201Z,7.08
2023-01-12T02:12:51.205Z,7.05
2023-01-12T02:13:51.177Z,7.01
2023-01-12T02:14:52.385Z,7.00
2023-01-12T02:15:52.204Z,6.97
2023-01-12T02:16:51.138Z,7.01
2023-01-12T02:17:51.142Z,6.99
2023-01-12T02:18:51.143Z,6.96
2023-01-12T02:19:51.124Z,7.04
2023-01-12T02:20:51.240Z,7.00
2023-01-12T02:21:51.108Z,6.97
2023-01-12T02:22:51.026Z,6.94
2023-01-12T02:23:51.126Z,7.01
2023-01-12T02:24:50.974Z,6.93
2023-01-12T02:25:50.998Z,6.97
2023-01-12T02:26:50.948Z,6.96
2023-01-12T02:27:51.009Z,6.97
2023-01-12T02:28:50.918Z,6.97
2023-01-12T02:29:50.906Z,6.96
2023-01-12T02:30:50.916Z,6.96
2023-01-12T02:31:50.930Z,6.93
2023-01-12T02:32:50.844Z,6.93
2023-01-12T02:33:50.832Z,7.00
2023-01-12T02:34:50.815Z,7.01
2023-01-12T02:35:50.842Z,7.00
2023-01-12T02:36:50.802Z,6.97
2023-01-12T02:37:50.781Z,7.04
2023-01-12T02:38:50.765Z,6.99
2023-01-12T02:39:50.747Z,6.89
2023-01-12T02:40:50.818Z,6.97
2023-01-12T02:41:51.710Z,6.83
2023-01-12T02:42:50.697Z,6.82
2023-01-12T02:43:50.669Z,6.83
2023-01-12T02:44:50.727Z,6.86
2023-01-12T02:45:50.682Z,6.91
2023-01-12T02:46:50.795Z,7.05
2023-01-12T02:47:51.596Z,6.87
2023-01-12T02:48:50.581Z,6.93
2023-01-12T02:49:50.686Z,6.99
2023-01-12T02:50:50.641Z,6.93
2023-01-12T02:51:50.551Z,7.00
2023-01-12T02:52:50.523Z,6.99
2023-01-12T02:53:50.593Z,7.00
2023-01-12T02:54:50.494Z,7.04
2023-01-12T02:55:50.498Z,6.90
2023-01-12T02:56:50.447Z,7.07
2023-01-12T02:57:50.444Z,7.04
2023-01-12T02:58:50.425Z,7.05
2023-01-12T02:59:50.415Z,7.01
2023-01-12T03:00:50.474Z,7.07
2023-01-12T03:01:50.380Z,7.09
2023-01-12T03:02:50.411Z,6.90
2023-01-12T03:03:50.343Z,6.96
2023-01-12T03:04:50.357Z,7.05
2023-01-12T03:05:50.343Z,7.08
2023-01-12T03:06:50.289Z,7.14
2023-01-12T03:07:50.369Z,7.09
2023-01-12T03:08:50.255Z,7.12
2023-01-12T03:09:50.248Z,7.09
2023-01-12T03:10:50.243Z,6.99
2023-01-12T03:11:50.265Z,7.01
2023-01-12T03:12:50.180Z,7.18
2023-01-12T03:13:50.152Z,6.96
2023-01-12T03:14:50.167Z,7.07
2023-01-12T03:15:50.217Z,6.97
2023-01-12T03:16:50.293Z,7.07
2023-01-12T03:17:50.098Z,7.08
2023-01-12T03:18:50.078Z,7.05
2023-01-12T03:19:50.058Z,7.09
2023-01-12T03:20:50.084Z,7.00
2023-01-12T03:21:50.057Z,7.14
2023-01-12T03:22:50.005Z,7.09
2023-01-12T03:23:49.992Z,7.14
2023-01-12T03:24:49.977Z,7.05
2023-01-12T03:25:49.992Z,7.19
2023-01-12T03:26:49.942Z,7.09
2023-01-12T03:27:49.933Z,7.15
2023-01-12T03:28:49.908Z,7.14
2023-01-12T03:29:49.896Z,7.12
2023-01-12T03:30:49.900Z,7.11
2023-01-12T03:31:49.856Z,7.04
2023-01-12T03:32:49.836Z,7.04
2023-01-12T03:33:49.921Z,7.00
2023-01-12T03:34:49.819Z,7.11
2023-01-12T03:35:49.834Z,7.00
2023-01-12T03:36:49.781Z,7.23
2023-01-12T03:37:49.793Z,7.05
2023-01-12T03:38:49.757Z,7.14
2023-01-12T03:39:49.815Z,7.07
2023-01-12T03:40:49.856Z,7.05
2023-01-12T03:41:49.686Z,7.07
2023-01-12T03:42:50.676Z,7.08
2023-01-12T03:43:49.685Z,7.16
2023-01-12T03:44:49.645Z,7.15
2023-01-12T03:45:49.657Z,7.21
2023-01-12T03:46:49.654Z,7.19
2023-01-12T03:47:49.596Z,7.15
2023-01-12T03:48:49.576Z,7.18
2023-01-12T03:49:49.561Z,7.12
2023-01-12T03:50:49.596Z,7.23
2023-01-12T03:51:49.528Z,7.29
2023-01-12T03:52:49.537Z,7.30
2023-01-12T03:53:49.529Z,7.32
2023-01-12T03:54:49.482Z,7.23
2023-01-12T03:55:49.494Z,7.27
2023-01-12T03:56:49.435Z,7.29
2023-01-12T03:57:49.431Z,7.34
2023-01-12T03:58:49.416Z,7.30
2023-01-12T03:59:49.395Z,7.26
2023-01-12T04:00:49.543Z,7.19
2023-01-12T04:01:49.505Z,7.29
2023-01-12T04:02:49.351Z,7.34
2023-01-12T04:03:49.342Z,7.29
2023-01-12T04:04:49.322Z,7.30
2023-01-12T04:05:49.334Z,7.34
2023-01-12T04:06:49.275Z,7.34
2023-01-12T04:07:49.251Z,7.24
2023-01-12T04:08:49.236Z,7.32
2023-01-12T04:09:49.243Z,7.32
2023-01-12T04:10:49.267Z,7.23
2023-01-12T04:11:49.189Z,7.34
2023-01-12T04:12:49.169Z,7.36
2023-01-12T04:13:49.180Z,7.36
2023-01-12T04:14:49.132Z,7.32
2023-01-12T04:15:49.256Z,7.29
2023-01-12T04:16:49.253Z,7.37
2023-01-12T04:17:49.105Z,7.30
2023-01-12T04:18:49.067Z,7.33
2023-01-12T04:19:49.124Z,7.32
2023-01-12T04:20:49.041Z,7.30
2023-01-12T04:21:49.079Z,7.33
2023-01-12T04:22:48.996Z,7.41
2023-01-12T04:23:48.993Z,7.39
2023-01-12T04:24:49.035Z,7.33
2023-01-12T04:25:48.974Z,7.34
2023-01-12T04:26:48.960Z,7.37
2023-01-12T04:27:48.931Z,7.37
2023-01-12T04:28:48.902Z,7.42
2023-01-12T04:29:48.876Z,7.39
2023-01-12T04:30:48.873Z,7.37
2023-01-12T04:31:49.000Z,7.37
2023-01-12T04:32:48.839Z,7.34
2023-01-12T04:33:48.824Z,7.32
2023-01-12T04:34:48.806Z,7.39
2023-01-12T04:35:48.789Z,7.32
2023-01-12T04:36:48.807Z,7.37
2023-01-12T04:37:48.750Z,7.41
2023-01-12T04:38:48.727Z,7.39
2023-01-12T04:39:48.747Z,7.26
2023-01-12T04:40:48.703Z,7.33
2023-01-12T04:41:48.817Z,7.32
2023-01-12T04:42:48.665Z,7.34
2023-01-12T04:43:48.660Z,7.24
2023-01-12T04:44:48.634Z,7.23
2023-01-12T04:45:48.802Z,7.27
2023-01-12T04:46:48.624Z,7.45
2023-01-12T04:47:49.580Z,7.32
2023-01-12T04:48:48.568Z,7.36
2023-01-12T04:49:48.553Z,7.48
2023-01-12T04:50:48.528Z,7.41
2023-01-12T04:51:48.556Z,7.42
2023-01-12T04:52:48.522Z,7.39
2023-01-12T04:53:48.495Z,7.37
2023-01-12T04:54:48.509Z,7.36
2023-01-12T04:55:48.481Z,7.44
2023-01-12T04:56:48.457Z,7.45
2023-01-12T04:57:48.533Z,7.51
2023-01-12T04:58:48.411Z,7.45
2023-01-12T04:59:48.503Z,7.47
2023-01-12T05:00:48.367Z,7.44
2023-01-12T05:01:48.574Z,7.39
2023-01-12T05:02:48.329Z,7.44
2023-01-12T05:03:48.343Z,7.50
2023-01-12T05:04:48.295Z,7.37
2023-01-12T05:05:48.269Z,7.36
2023-01-12T05:06:48.282Z,7.47
2023-01-12T05:07:48.327Z,7.36
2023-01-12T05:08:48.216Z,7.42
2023-01-12T05:09:48.201Z,7.41
2023-01-12T05:10:48.207Z,7.44
2023-01-12T05:11:48.211Z,7.29
2023-01-12T05:12:48.146Z,7.37
2023-01-12T05:13:48.139Z,7.41
2023-01-12T05:14:48.262Z,7.41
2023-01-12T05:15:48.105Z,7.33
2023-01-12T05:16:48.177Z,7.37
2023-01-12T05:17:48.076Z,7.37
2023-01-12T05:18:48.076Z,7.44
2023-01-12T05:19:48.032Z,7.39
2023-01-12T05:20:48.010Z,7.39
2023-01-12T05:21:48.020Z,7.24
2023-01-12T05:22:47.977Z,7.50
2023-01-12T05:23:48.017Z,7.37
2023-01-12T05:24:47.940Z,7.45
2023-01-12T05:25:47.940Z,7.44
2023-01-12T05:26:47.937Z,7.48
2023-01-12T05:27:47.903Z,7.39
2023-01-12T05:28:47.886Z,7.47
2023-01-12T05:29:47.870Z,7.44
2023-01-12T05:30:47.872Z,7.39
2023-01-12T05:31:47.861Z,7.32
2023-01-12T05:32:47.820Z,7.36
2023-01-12T05:33:47.927Z,7.52
2023-01-12T05:34:47.838Z,7.45
2023-01-12T05:35:47.798Z,7.34
2023-01-12T05:36:47.792Z,7.47
2023-01-12T05:37:47.753Z,7.37
2023-01-12T05:38:47.796Z,7.32
2023-01-12T05:39:47.720Z,7.42
2023-01-12T05:40:47.674Z,7.41
2023-01-12T05:41:47.695Z,7.37
2023-01-12T05:42:47.638Z,7.29
2023-01-12T05:43:47.635Z,7.27
2023-01-12T05:44:47.606Z,7.26
2023-01-12T05:45:47.628Z,7.24
2023-01-12T05:46:47.610Z,7.30
2023-01-12T05:48:19.956Z,7.29
2023-01-12T05:48:47.557Z,7.34
2023-01-12T05:49:47.544Z,7.33
2023-01-12T05:50:47.531Z,7.33
2023-01-12T05:51:47.524Z,7.33
2023-01-12T05:52:47.471Z,7.34
2023-01-12T05:53:47.498Z,7.30
2023-01-12T05:54:47.470Z,7.34
2023-01-12T05:55:47.419Z,7.21
2023-01-12T05:56:49.751Z,7.24
2023-01-12T05:57:47.405Z,7.34
2023-01-12T05:58:47.382Z,7.32
2023-01-12T05:59:47.371Z,7.30
2023-01-12T06:00:47.352Z,7.26
2023-01-12T06:01:47.349Z,7.32
2023-01-12T06:02:47.315Z,7.33
2023-01-12T06:03:47.287Z,7.33
2023-01-12T06:04:47.309Z,7.36
2023-01-12T06:05:47.275Z,7.36
2023-01-12T06:06:47.291Z,7.36
2023-01-12T06:07:47.224Z,7.36
2023-01-12T06:08:47.203Z,7.41
2023-01-12T06:09:47.201Z,7.41
2023-01-12T06:10:47.177Z,7.34
2023-01-12T06:11:47.172Z,7.33
2023-01-12T06:12:47.127Z,7.32
2023-01-12T06:13:47.127Z,7.30
2023-01-12T06:14:47.104Z,7.36
2023-01-12T06:15:47.135Z,7.23
2023-01-12T06:16:47.112Z,7.23
2023-01-12T06:17:47.058Z,7.23
2023-01-12T06:18:47.044Z,7.26
2023-01-12T06:19:47.080Z,7.27
2023-01-12T06:20:47.019Z,7.29
2023-01-12T06:21:47.034Z,7.29
2023-01-12T06:22:47.022Z,7.27
2023-01-12T06:23:46.998Z,7.30
2023-01-12T06:24:46.957Z,7.26
2023-01-12T06:25:46.907Z,7.29
2023-01-12T06:26:46.953Z,7.32
2023-01-12T06:27:46.994Z,7.29
2023-01-12T06:28:46.889Z,7.19
2023-01-12T06:29:46.888Z,7.27
2023-01-12T06:30:46.885Z,7.30
2023-01-12T06:31:46.911Z,7.32
2023-01-12T06:32:46.797Z,7.23
2023-01-12T06:33:46.825Z,7.27
2023-01-12T06:34:46.771Z,7.26
2023-01-12T06:35:46.766Z,7.15
2023-01-12T06:36:46.784Z,7.30
2023-01-12T06:37:46.744Z,7.26
2023-01-12T06:38:46.711Z,7.23
2023-01-12T06:39:46.694Z,7.26
2023-01-12T06:40:46.728Z,7.27
2023-01-12T06:41:46.683Z,7.26
2023-01-12T06:42:46.637Z,7.18
2023-01-12T06:43:46.623Z,7.21
2023-01-12T06:44:48.768Z,7.21
2023-01-12T06:45:46.680Z,7.30
2023-01-12T06:46:46.587Z,7.27
2023-01-12T06:47:46.614Z,7.33
2023-01-12T06:48:46.523Z,7.27
2023-01-12T06:49:46.519Z,7.19
2023-01-12T06:50:46.485Z,7.23
2023-01-12T06:51:46.497Z,7.14
2023-01-12T06:52:46.450Z,7.15
2023-01-12T06:53:46.448Z,7.12
2023-01-12T06:54:46.421Z,7.18
2023-01-12T06:55:46.406Z,7.19
2023-01-12T06:56:46.419Z,7.24
2023-01-12T06:57:46.386Z,7.24
2023-01-12T06:58:46.374Z,7.26
2023-01-12T06:59:46.347Z,7.27
2023-01-12T07:00:46.328Z,7.32
2023-01-12T07:01:46.444Z,7.24
2023-01-12T07:02:46.312Z,7.24
2023-01-12T07:03:46.269Z,7.12
2023-01-12T07:04:46.284Z,7.21
2023-01-12T07:05:46.244Z,7.27
2023-01-12T07:06:46.271Z,7.26
2023-01-12T07:07:46.196Z,7.32
2023-01-12T07:08:46.199Z,7.21
2023-01-12T07:09:46.166Z,7.27
2023-01-12T07:10:46.166Z,7.32
2023-01-12T07:11:46.210Z,7.29
2023-01-12T07:12:46.146Z,7.24
2023-01-12T07:13:46.127Z,7.23
2023-01-12T07:14:47.125Z,7.26
2023-01-12T07:15:46.099Z,7.27
2023-01-12T07:16:46.064Z,7.23
2023-01-12T07:17:46.101Z,7.18
2023-01-12T07:18:46.014Z,7.26
2023-01-12T07:19:46.007Z,7.21
2023-01-12T07:20:46.013Z,7.26
2023-01-12T07:21:45.970Z,7.19
2023-01-12T07:22:45.991Z,7.21
2023-01-12T07:23:45.961Z,7.26
2023-01-12T07:24:45.973Z,7.09
2023-01-12T07:25:45.910Z,7.08
2023-01-12T07:26:45.927Z,7.11
2023-01-12T07:27:45.924Z,7.07
2023-01-12T07:28:45.899Z,7.07
2023-01-12T07:29:45.838Z,7.11
2023-01-12T07:30:45.852Z,7.09
2023-01-12T07:31:45.803Z,7.04
2023-01-12T07:32:45.829Z,7.09
2023-01-12T07:33:45.784Z,7.05
2023-01-12T07:34:45.742Z,7.14
2023-01-12T07:35:45.727Z,7.09
2023-01-12T07:36:45.713Z,7.12
2023-01-12T07:37:45.799Z,7.05
2023-01-12T07:38:45.673Z,7.19
2023-01-12T07:39:45.666Z,7.05
2023-01-12T07:40:45.680Z,7.14
2023-01-12T07:41:45.649Z,7.18
2023-01-12T07:42:45.642Z,7.08
2023-01-12T07:43:45.702Z,7.08
2023-01-12T07:44:45.607Z,7.08
2023-01-12T07:45:45.608Z,7.08
2023-01-12T07:46:45.607Z,7.15
2023-01-12T07:47:45.575Z,7.04
2023-01-12T07:48:45.507Z,7.04
2023-01-12T07:49:45.492Z,7.04
2023-01-12T07:50:45.476Z,7.05
2023-01-12T07:51:45.500Z,6.99
2023-01-12T07:52:45.554Z,7.15
2023-01-12T07:53:45.426Z,7.16
2023-01-12T07:54:45.425Z,7.12
2023-01-12T07:55:45.392Z,7.12
2023-01-12T07:56:45.386Z,7.11
2023-01-12T07:57:45.387Z,7.12
2023-01-12T07:58:45.368Z,7.08
2023-01-12T07:59:45.324Z,7.07
2023-01-12T08:00:45.323Z,7.15
2023-01-12T08:01:45.342Z,7.07
2023-01-12T08:02:45.315Z,7.07
2023-01-12T08:03:45.256Z,7.15
2023-01-12T08:04:45.238Z,7.04
2023-01-12T08:05:45.275Z,7.07
2023-01-12T08:06:45.203Z,7.01
2023-01-12T08:07:45.234Z,7.01
2023-01-12T08:08:45.175Z,7.05
2023-01-12T08:09:45.163Z,7.05
2023-01-12T08:10:45.167Z,7.01
2023-01-12T08:11:45.139Z,7.08
2023-01-12T08:12:45.137Z,7.11
2023-01-12T08:13:45.148Z,7.09
2023-01-12T08:14:45.087Z,7.23
2023-01-12T08:15:45.069Z,7.09
2023-01-12T08:16:45.046Z,7.05
2023-01-12T08:17:45.055Z,7.16
2023-01-12T08:18:45.019Z,7.11
2023-01-12T08:19:44.989Z,7.12
2023-01-12T08:20:45.025Z,7.15
2023-01-12T08:21:44.960Z,7.18
2023-01-12T08:22:44.991Z,7.16
2023-01-12T08:23:44.921Z,7.12
2023-01-12T08:24:44.908Z,7.14
2023-01-12T08:25:45.018Z,7.14
2023-01-12T08:26:44.870Z,7.12
2023-01-12T08:27:44.884Z,7.11
2023-01-12T08:28:44.881Z,7.11
2023-01-12T08:29:44.814Z,7.15
2023-01-12T08:30:44.819Z,7.21
2023-01-12T08:31:44.814Z,7.07
2023-01-12T08:32:44.768Z,7.18
2023-01-12T08:33:44.766Z,7.14
2023-01-12T08:34:44.726Z,7.15
2023-01-12T08:35:44.721Z,7.09
2023-01-12T08:36:44.798Z,7.09
2023-01-12T08:37:44.696Z,7.11
2023-01-12T08:38:44.689Z,7.09
2023-01-12T08:39:44.656Z,7.23
2023-01-12T08:40:44.623Z,7.15
2023-01-12T08:41:44.647Z,7.14
2023-01-12T08:42:44.587Z,7.16
2023-01-12T08:43:44.578Z,7.23
2023-01-12T08:44:44.551Z,7.11
2023-01-12T08:45:44.539Z,7.15
2023-01-12T08:46:44.624Z,7.14
2023-01-12T08:47:44.518Z,7.14
2023-01-12T08:48:44.550Z,7.23
2023-01-12T08:49:44.479Z,7.14
2023-01-12T08:50:44.491Z,7.14
2023-01-12T08:51:44.470Z,7.23
2023-01-12T08:52:44.435Z,7.23
2023-01-12T08:53:44.396Z,7.18
2023-01-12T08:54:44.398Z,7.21
2023-01-12T08:55:44.363Z,7.21
2023-01-12T08:56:44.391Z,7.24
2023-01-12T08:57:44.369Z,7.29
2023-01-12T08:58:44.338Z,7.27
2023-01-12T08:59:44.339Z,7.27
2023-01-12T09:00:44.321Z,7.26
2023-01-12T09:01:44.364Z,7.29
2023-01-12T09:02:44.295Z,7.30
2023-01-12T09:03:44.283Z,7.16
2023-01-12T09:04:44.220Z,7.32
2023-01-12T09:05:44.212Z,7.32
2023-01-12T09:06:44.255Z,7.26
2023-01-12T09:07:44.197Z,7.29
2023-01-12T09:08:44.166Z,7.36
2023-01-12T09:09:44.213Z,7.34
2023-01-12T09:10:44.123Z,7.24
2023-01-12T09:11:44.154Z,7.44
2023-01-12T09:12:44.090Z,7.44
2023-01-12T09:13:44.075Z,7.44
2023-01-12T09:14:44.077Z,7.33
2023-01-12T09:15:56.486Z,7.45
2023-01-12T09:16:45.118Z,7.50
2023-01-12T09:17:44.082Z,7.47
2023-01-12T09:18:44.008Z,7.47
2023-01-12T09:19:44.000Z,7.48
2023-01-12T09:20:43.960Z,7.58
2023-01-12T09:21:43.977Z,7.55
2023-01-12T09:22:43.930Z,7.60
2023-01-12T09:23:43.996Z,7.50
2023-01-12T09:24:43.889Z,7.63
2023-01-12T09:25:43.895Z,7.62
2023-01-12T09:26:43.885Z,7.66
2023-01-12T09:27:43.864Z,7.66
2023-01-12T09:28:43.821Z,7.73
2023-01-12T09:29:43.829Z,7.63
2023-01-12T09:30:43.788Z,7.69
2023-01-12T09:31:43.954Z,7.52
2023-01-12T09:32:43.756Z,7.51
2023-01-12T09:33:43.750Z,7.57
2023-01-12T09:34:43.791Z,7.66
2023-01-12T09:35:43.707Z,7.67
2023-01-12T09:36:43.720Z,7.67
2023-01-12T09:37:43.722Z,7.74
2023-01-12T09:38:43.664Z,7.81
2023-01-12T09:39:43.630Z,7.74
2023-01-12T09:40:43.642Z,7.84
2023-01-12T09:41:43.675Z,7.73
2023-01-12T09:42:43.590Z,7.84
2023-01-12T09:43:43.574Z,7.85
2023-01-12T09:44:43.601Z,7.91
2023-01-12T09:45:43.586Z,7.91
2023-01-12T09:46:43.557Z,8.02
2023-01-12T09:47:43.505Z,7.96
2023-01-12T09:48:43.507Z,7.86
2023-01-12T09:49:43.474Z,7.77
2023-01-12T09:50:43.465Z,7.85
2023-01-12T09:51:43.461Z,7.84
2023-01-12T09:52:43.438Z,7.82
2023-01-12T09:53:43.400Z,7.92
2023-01-12T09:54:43.384Z,7.99
2023-01-12T09:55:43.388Z,8.06
2023-01-12T09:56:43.395Z,8.00
2023-01-12T09:57:43.352Z,8.00
2023-01-12T09:58:43.331Z,8.07
2023-01-12T09:59:43.321Z,8.04
2023-01-12T10:00:43.316Z,7.91
2023-01-12T10:01:43.341Z,7.92
2023-01-12T10:02:43.360Z,7.99
2023-01-12T10:03:43.280Z,8.07
2023-01-12T10:04:43.296Z,7.96
2023-01-12T10:05:43.219Z,7.99
2023-01-12T10:06:43.235Z,8.09
2023-01-12T10:07:43.176Z,8.00
2023-01-12T10:08:43.163Z,7.99
2023-01-12T10:09:43.132Z,7.99
2023-01-12T10:10:43.110Z,7.94
2023-01-12T10:11:43.142Z,7.82
2023-01-12T10:12:43.123Z,7.85
2023-01-12T10:13:43.068Z,7.89
2023-01-12T10:14:43.056Z,7.82
2023-01-12T10:15:43.034Z,7.85
2023-01-12T10:16:43.064Z,7.89
2023-01-12T10:17:51.349Z,7.91
2023-01-12T10:18:47.442Z,7.96
2023-01-12T10:19:43.270Z,7.94
2023-01-12T10:20:42.954Z,7.96
2023-01-12T10:21:42.966Z,8.06
2023-01-12T10:22:42.930Z,8.06
2023-01-12T10:23:42.926Z,7.96
2023-01-12T10:24:42.882Z,8.04
2023-01-12T10:25:42.881Z,8.04
2023-01-12T10:26:42.910Z,7.99
2023-01-12T10:27:42.844Z,8.03
2023-01-12T10:28:42.805Z,8.06
2023-01-12T10:29:42.843Z,7.99
2023-01-12T10:30:42.791Z,8.07
2023-01-12T10:31:42.847Z,8.02
2023-01-12T10:32:42.777Z,7.99
2023-01-12T10:33:42.729Z,7.96
2023-01-12T10:34:42.736Z,7.96
2023-01-12T10:35:42.696Z,8.00
2023-01-12T10:36:42.702Z,7.95
2023-01-12T10:37:42.680Z,7.96
2023-01-12T10:38:42.656Z,7.88
2023-01-12T10:39:42.615Z,7.99
2023-01-12T10:40:42.609Z,8.02
2023-01-12T10:41:42.643Z,8.04
2023-01-12T10:42:42.580Z,8.12
2023-01-12T10:43:42.569Z,8.14
2023-01-12T10:44:42.546Z,8.13
2023-01-12T10:45:42.546Z,8.12
2023-01-12T10:46:42.542Z,8.03
2023-01-12T10:47:42.519Z,8.09
2023-01-12T10:48:42.474Z,8.10
2023-01-12T10:49:42.480Z,8.14
2023-01-12T10:50:42.439Z,8.14
2023-01-12T10:51:42.443Z,8.18
2023-01-12T10:52:42.404Z,8.22
2023-01-12T10:53:42.441Z,8.17
2023-01-12T10:54:42.368Z,8.20
2023-01-12T10:55:42.357Z,8.21
2023-01-12T10:56:42.368Z,8.21
2023-01-12T10:57:42.310Z,8.21
2023-01-12T10:58:42.363Z,8.14
2023-01-12T10:59:42.308Z,8.18
2023-01-12T11:00:42.280Z,8.07
2023-01-12T11:01:42.328Z,8.18
2023-01-12T11:02:42.279Z,8.20
2023-01-12T11:03:42.224Z,8.32
2023-01-12T11:04:42.212Z,8.31
2023-01-12T11:05:42.214Z,8.28
2023-01-12T11:06:43.217Z,8.29
2023-01-12T11:07:42.158Z,8.31
2023-01-12T11:08:42.127Z,8.31
2023-01-12T11:09:42.109Z,8.39
2023-01-12T11:10:42.105Z,8.45
2023-01-12T11:11:42.118Z,8.45
2023-01-12T11:12:42.084Z,8.37
2023-01-12T11:13:42.038Z,8.49
2023-01-12T11:14:42.040Z,8.57
2023-01-12T11:15:42.006Z,8.46
2023-01-12T11:16:42.057Z,8.46
2023-01-12T11:17:42.058Z,8.52
2023-01-12T11:18:41.975Z,8.47
2023-01-12T11:19:41.954Z,8.49
2023-01-12T11:20:41.938Z,8.49
2023-01-12T11:21:41.909Z,8.43
2023-01-12T11:22:41.934Z,8.49
2023-01-12T11:23:41.862Z,8.42
2023-01-12T11:24:41.870Z,8.52
2023-01-12T11:25:41.870Z,8.47
2023-01-12T11:26:41.818Z,8.47
2023-01-12T11:27:41.867Z,8.55
2023-01-12T11:28:41.782Z,8.50
2023-01-12T11:29:41.876Z,8.55
2023-01-12T11:30:42.834Z,8.65
2023-01-12T11:31:41.745Z,8.57
2023-01-12T11:32:41.779Z,8.60
2023-01-12T11:33:41.713Z,8.71
2023-01-12T11:34:41.681Z,8.76
2023-01-12T11:35:41.669Z,8.73
2023-01-12T11:36:41.659Z,8.80
2023-01-12T11:37:41.662Z,8.76
2023-01-12T11:38:41.633Z,8.78
2023-01-12T11:39:41.607Z,8.79
2023-01-12T11:40:41.581Z,8.86
2023-01-12T11:41:41.574Z,8.76
2023-01-12T11:42:41.773Z,8.82
2023-01-12T11:43:41.528Z,8.88
2023-01-12T11:44:41.526Z,8.83
2023-01-12T11:45:41.608Z,8.83
2023-01-12T11:46:41.503Z,8.83
2023-01-12T11:47:41.970Z,8.85
2023-01-12T11:48:42.439Z,8.86
2023-01-12T11:49:41.428Z,8.83
2023-01-12T11:51:13.806Z,8.94
2023-01-12T11:51:41.637Z,8.83
2023-01-12T11:52:41.403Z,8.94
2023-01-12T11:53:41.650Z,8.96
2023-01-12T11:54:42.362Z,8.89
2023-01-12T11:55:41.336Z,8.96
2023-01-12T11:56:41.317Z,8.91
2023-01-12T11:57:41.339Z,9.00
2023-01-12T11:58:41.276Z,8.98
2023-01-12T11:59:41.791Z,8.98
2023-01-12T12:00:42.272Z,9.03
2023-01-12T12:01:41.247Z,8.96
2023-01-12T12:02:41.376Z,9.03
2023-01-12T12:03:41.249Z,9.01
2023-01-12T12:04:41.253Z,9.03
2023-01-12T12:05:41.436Z,9.15
2023-01-12T12:06:42.155Z,9.13
2023-01-12T12:07:41.311Z,9.06
2023-01-12T12:08:41.127Z,9.19
2023-01-12T12:09:41.093Z,9.08
2023-01-12T12:10:41.102Z,9.19
2023-01-12T12:11:41.923Z,9.13
2023-01-12T12:12:42.078Z,9.15
2023-01-12T12:13:41.874Z,9.19
2023-01-12T12:14:41.015Z,9.17
2023-01-12T12:15:41.017Z,9.16
2023-01-12T12:16:40.983Z,9.30
2023-01-12T12:17:41.906Z,9.31
2023-01-12T12:18:42.026Z,9.32
2023-01-12T12:19:40.923Z,9.34
2023-01-12T12:20:40.901Z,9.35
2023-01-12T12:21:40.888Z,9.32
2023-01-12T12:22:41.894Z,9.40
2023-01-12T12:23:41.616Z,9.45
2023-01-12T12:24:41.829Z,9.42
2023-01-12T12:25:40.830Z,9.45
2023-01-12T12:26:40.795Z,9.48
2023-01-12T12:27:40.822Z,9.41
2023-01-12T12:28:40.782Z,9.44
2023-01-12T12:29:41.204Z,9.45
2023-01-12T12:30:41.815Z,9.52
2023-01-12T12:31:40.993Z,9.45
2023-01-12T12:32:40.738Z,9.56
2023-01-12T12:33:40.691Z,9.48
2023-01-12T12:34:40.680Z,9.40
2023-01-12T12:35:41.500Z,9.48
2023-01-12T12:36:41.639Z,9.42
2023-01-12T12:37:40.635Z,9.42
2023-01-12T12:38:40.590Z,9.37
2023-01-12T12:39:40.783Z,9.32
2023-01-12T12:40:40.555Z,9.30
2023-01-12T12:41:41.558Z,9.30
2023-01-12T12:42:41.579Z,9.32
2023-01-12T12:43:40.509Z,9.31
2023-01-12T12:44:40.508Z,9.37
2023-01-12T12:45:40.486Z,9.34
2023-01-12T12:46:40.466Z,9.35
2023-01-12T12:47:42.144Z,9.42
2023-01-12T12:48:41.432Z,9.38
2023-01-12T12:49:40.460Z,9.40
2023-01-12T12:50:40.394Z,9.27
2023-01-12T12:51:40.389Z,9.35
2023-01-12T12:52:40.390Z,9.31
2023-01-12T12:53:41.884Z,9.42
2023-01-12T12:54:41.341Z,9.37
2023-01-12T12:55:40.328Z,9.37
2023-01-12T12:56:40.304Z,9.48
2023-01-12T12:57:40.304Z,9.45
2023-01-12T12:58:40.255Z,9.37
2023-01-12T12:59:40.356Z,9.27
2023-01-12T13:00:40.333Z,9.30
2023-01-12T13:01:40.269Z,9.31
2023-01-12T13:02:40.343Z,9.35
2023-01-12T13:03:40.336Z,9.42
2023-01-12T13:04:40.151Z,9.38
2023-01-12T13:05:40.157Z,9.44
2023-01-12T13:06:40.134Z,9.42
2023-01-12T13:07:40.197Z,9.32
2023-01-12T13:08:40.102Z,9.38
2023-01-12T13:09:40.116Z,9.35
2023-01-12T13:10:40.069Z,9.34
2023-01-12T13:11:40.040Z,9.37
2023-01-12T13:12:40.046Z,9.35
2023-01-12T13:13:40.136Z,9.45
2023-01-12T13:14:40.008Z,9.45
2023-01-12T13:15:39.985Z,9.38
2023-01-12T13:16:39.961Z,9.44
2023-01-12T13:17:39.973Z,9.30
2023-01-12T13:18:39.917Z,9.26